createdAt,value
2023-05-12T00:01:12.638Z,89532.31
2023-05-12T00:03:39.538Z,89511.34
2023-05-12T00:06:06.551Z,89525.81
2023-05-12T00:08:33.637Z,89530.31
2023-05-12T00:11:01.768Z,89523.81
2023-05-12T00:13:28.746Z,89517.97
2023-05-12T00:15:55.651Z,89529.50
2023-05-12T00:18:23.080Z,89536.13
2023-05-12T00:20:49.924Z,89524.56
2023-05-12T00:23:16.769Z,89518.78
2023-05-12T00:25:43.600Z,89529.50
2023-05-12T00:28:10.410Z,89536.81
2023-05-12T00:30:37.185Z,89518.63
2023-05-12T00:33:05.199Z,89527.88
2023-05-12T00:35:32.005Z,89513.59
2023-05-12T00:37:58.835Z,89529.53
2023-05-12T00:40:25.705Z,89508.22
2023-05-12T00:42:52.454Z,89506.28
2023-05-12T00:45:19.279Z,89515.63
2023-05-12T00:47:46.728Z,89515.19
2023-05-12T00:50:13.671Z,89514.63
2023-05-12T00:52:40.876Z,89494.56
2023-05-12T00:55:08.111Z,89516.75
2023-05-12T00:57:34.938Z,89506.66
2023-05-12T01:00:01.821Z,89486.25
2023-05-12T01:02:29.182Z,89506.28
2023-05-12T01:04:56.132Z,89496.97
2023-05-12T01:07:23.205Z,89497.59
2023-05-12T01:09:57.259Z,89510.97
2023-05-12T01:12:24.515Z,89513.88
2023-05-12T01:14:53.247Z,89508.03
2023-05-12T01:17:22.458Z,89507.94
2023-05-12T01:20:00.165Z,89506.84
2023-05-12T01:22:29.833Z,89502.84
2023-05-12T01:25:02.728Z,89484.16
2023-05-12T01:27:30.436Z,89500.19
2023-05-12T01:30:05.130Z,89488.16
2023-05-12T01:32:32.163Z,89491.50
2023-05-12T01:34:58.980Z,89492.13
2023-05-12T01:37:25.830Z,89489.56
2023-05-12T01:39:53.984Z,89501.44
2023-05-12T01:42:20.862Z,89497.59
2023-05-12T01:44:47.829Z,89492.56
2023-05-12T01:47:14.761Z,89482.88
2023-05-12T01:49:41.742Z,89487.91
2023-05-12T01:52:08.634Z,89481.13
2023-05-12T01:54:35.435Z,89487.25
2023-05-12T01:57:02.210Z,89483.22
2023-05-12T01:59:29.188Z,89484.69
2023-05-12T02:01:56.186Z,89469.88
2023-05-12T02:04:23.121Z,89477.03
2023-05-12T02:06:49.955Z,89460.72
2023-05-12T02:09:16.841Z,89455.59
2023-05-12T02:11:43.623Z,89482.69
2023-05-12T02:14:10.496Z,89467.13
2023-05-12T02:16:37.366Z,89468.06
2023-05-12T02:19:04.376Z,89450.47
2023-05-12T02:21:31.354Z,89453.59
2023-05-12T02:23:58.313Z,89455.69
2023-05-12T02:26:25.281Z,89475.00
2023-05-12T02:28:52.067Z,89486.28
2023-05-12T02:31:19.076Z,89486.53
2023-05-12T02:33:45.879Z,89478.66
2023-05-12T02:36:12.720Z,89478.84
2023-05-12T02:38:39.519Z,89480.94
2023-05-12T02:41:06.299Z,89471.16
2023-05-12T02:43:33.143Z,89461.19
2023-05-12T02:46:00.217Z,89463.56
2023-05-12T02:48:27.146Z,89454.88
2023-05-12T02:50:53.941Z,89461.53
2023-05-12T02:53:20.818Z,89441.31
2023-05-12T02:55:47.681Z,89446.53
2023-05-12T02:58:14.538Z,89440.97
2023-05-12T03:00:41.375Z,89438.13
2023-05-12T03:03:08.310Z,89447.91
2023-05-12T03:05:35.358Z,89432.38
2023-05-12T03:08:02.421Z,89452.84
2023-05-12T03:10:29.307Z,89456.53
2023-05-12T03:12:56.085Z,89448.81
2023-05-12T03:15:23.033Z,89467.31
2023-05-12T03:17:49.867Z,89472.97
2023-05-12T03:20:16.841Z,89449.28
2023-05-12T03:22:43.791Z,89447.72
2023-05-12T03:25:10.656Z,89448.44
2023-05-12T03:27:37.531Z,89445.88
2023-05-12T03:30:04.728Z,89447.25
2023-05-12T03:32:31.631Z,89451.56
2023-05-12T03:34:58.729Z,89447.00
2023-05-12T03:37:25.656Z,89435.63
2023-05-12T03:39:52.481Z,89450.84
2023-05-12T03:42:19.286Z,89461.91
2023-05-12T03:44:46.158Z,89463.44
2023-05-12T03:47:13.042Z,89465.28
2023-05-12T03:49:39.959Z,89457.19
2023-05-12T03:52:07.229Z,89459.97
2023-05-12T03:54:35.136Z,89459.75
2023-05-12T03:57:02.927Z,89462.78
2023-05-12T03:59:33.327Z,89455.75
2023-05-12T04:02:00.251Z,89454.81
2023-05-12T04:04:27.103Z,89441.91
2023-05-12T04:06:59.005Z,89434.88
2023-05-12T04:09:25.817Z,89428.09
2023-05-12T04:11:52.620Z,89432.56
2023-05-12T04:14:21.544Z,89435.03
2023-05-12T04:16:53.442Z,89442.00
2023-05-12T04:19:20.371Z,89435.56
2023-05-12T04:21:47.198Z,89459.00
2023-05-12T04:24:13.999Z,89436.09
2023-05-12T04:26:40.983Z,89438.13
2023-05-12T04:29:07.844Z,89454.41
2023-05-12T04:31:34.701Z,89447.56
2023-05-12T04:34:01.681Z,89452.38
2023-05-12T04:36:28.640Z,89443.78
2023-05-12T04:38:55.507Z,89441.84
2023-05-12T04:41:22.490Z,89443.72
2023-05-12T04:46:19.076Z,89455.69
2023-05-12T04:48:46.060Z,89451.28
2023-05-12T04:51:12.958Z,89456.31
2023-05-12T04:53:39.779Z,89461.13
2023-05-12T04:56:06.720Z,89452.88
2023-05-12T04:58:33.703Z,89458.72
2023-05-12T05:01:00.793Z,89448.34
2023-05-12T05:06:08.332Z,89436.13
2023-05-12T05:08:35.126Z,89434.28
2023-05-12T05:11:02.057Z,89461.34
2023-05-12T05:13:28.925Z,89473.34
2023-05-12T05:15:55.900Z,89459.50
2023-05-12T05:18:24.224Z,89462.75
2023-05-12T05:20:57.976Z,89464.94
2023-05-12T05:23:26.047Z,89480.22
2023-05-12T05:25:53.174Z,89474.25
2023-05-12T05:28:20.091Z,89471.25
2023-05-12T05:30:46.899Z,89462.69
2023-05-12T05:33:13.685Z,89455.00
2023-05-12T05:35:41.110Z,89453.06
2023-05-12T05:38:08.156Z,89457.75
2023-05-12T05:40:48.845Z,89468.75
2023-05-12T05:43:19.678Z,89464.66
2023-05-12T05:45:46.622Z,89464.44
2023-05-12T05:48:13.469Z,89462.09
2023-05-12T05:50:40.529Z,89458.50
2023-05-12T05:53:07.379Z,89470.22
2023-05-12T05:55:34.206Z,89465.91
2023-05-12T05:58:01.257Z,89463.25
2023-05-12T06:00:28.222Z,89471.66
2023-05-12T06:02:55.139Z,89483.22
2023-05-12T06:05:22.474Z,89478.09
2023-05-12T06:07:49.539Z,89487.88
2023-05-12T06:10:16.482Z,89482.31
2023-05-12T06:12:43.367Z,89486.53
2023-05-12T06:15:11.204Z,89486.34
2023-05-12T06:17:38.638Z,89488.50
2023-05-12T06:20:06.285Z,89492.34
2023-05-12T06:22:33.045Z,89506.03
2023-05-12T06:24:59.858Z,89511.63
2023-05-12T06:27:26.827Z,89506.16
2023-05-12T06:29:53.684Z,89515.63
2023-05-12T06:32:20.637Z,89508.09
2023-05-12T06:34:47.539Z,89510.78
2023-05-12T06:37:14.404Z,89510.75
2023-05-12T06:39:41.355Z,89514.59
2023-05-12T06:42:08.368Z,89511.44
2023-05-12T06:44:35.248Z,89518.50
2023-05-12T06:47:22.392Z,89521.47
2023-05-12T06:49:49.666Z,89523.41
2023-05-12T06:52:16.683Z,89505.75
2023-05-12T06:54:43.627Z,89505.41
2023-05-12T06:57:10.583Z,89490.09
2023-05-12T06:59:37.536Z,89479.16
2023-05-12T07:02:04.833Z,89488.22
2023-05-12T07:04:31.674Z,89499.22
2023-05-12T07:06:58.648Z,89519.28
2023-05-12T07:09:25.459Z,89530.22
2023-05-12T07:11:52.379Z,89534.34
2023-05-12T07:14:19.327Z,89536.91
2023-05-12T07:16:46.314Z,89531.69
2023-05-12T07:19:13.315Z,89540.06
2023-05-12T07:21:40.321Z,89539.75
2023-05-12T07:24:07.342Z,89540.34
2023-05-12T07:26:34.200Z,89535.13
2023-05-12T07:29:01.330Z,89544.50
2023-05-12T07:31:28.964Z,89533.84
2023-05-12T07:33:56.181Z,89548.34
2023-05-12T07:36:23.322Z,89544.13
2023-05-12T07:38:50.426Z,89539.78
2023-05-12T07:41:17.203Z,89535.81
2023-05-12T07:43:44.149Z,89528.00
2023-05-12T07:46:11.346Z,89521.47
2023-05-12T07:48:38.212Z,89508.44
2023-05-12T07:51:05.440Z,89518.63
2023-05-12T07:53:32.503Z,89528.69
2023-05-12T07:55:59.580Z,89542.16
2023-05-12T07:58:26.473Z,89540.69
2023-05-12T08:00:53.490Z,89537.75
2023-05-12T08:03:20.849Z,89538.16
2023-05-12T08:05:47.795Z,89527.84
2023-05-12T08:08:14.825Z,89516.44
2023-05-12T08:10:41.768Z,89496.84
2023-05-12T08:13:08.734Z,89495.88
2023-05-12T08:15:35.900Z,89483.03
2023-05-12T08:18:03.078Z,89476.03
2023-05-12T08:20:30.001Z,89468.50
2023-05-12T08:22:57.036Z,89475.81
2023-05-12T08:25:24.000Z,89483.72
2023-05-12T08:27:50.947Z,89480.50
2023-05-12T08:30:18.003Z,89487.69
2023-05-12T08:32:45.124Z,89486.75
2023-05-12T08:35:12.299Z,89474.53
2023-05-12T08:37:39.306Z,89472.19
2023-05-12T08:40:14.878Z,89467.13
2023-05-12T08:42:44.877Z,89450.91
2023-05-12T08:45:12.172Z,89444.63
2023-05-12T08:47:40.120Z,89449.22
2023-05-12T08:50:08.425Z,89445.81
2023-05-12T08:52:36.350Z,89432.94
2023-05-12T08:55:05.035Z,89418.13
2023-05-12T08:57:32.041Z,89429.78
2023-05-12T08:59:59.159Z,89426.09
2023-05-12T09:02:32.783Z,89434.31
2023-05-12T09:05:05.104Z,89429.97
2023-05-12T09:07:32.652Z,89427.47
2023-05-12T09:10:02.640Z,89420.22
2023-05-12T09:12:34.858Z,89425.75
2023-05-12T09:15:07.234Z,89428.16
2023-05-12T09:17:35.659Z,89425.53
2023-05-12T09:20:02.641Z,89416.88
2023-05-12T09:22:33.167Z,89406.63
2023-05-12T09:25:00.126Z,89406.84
2023-05-12T09:27:28.509Z,89414.81
2023-05-12T09:29:59.564Z,89408.91
2023-05-12T09:32:34.705Z,89411.75
2023-05-12T09:35:11.600Z,89401.19
2023-05-12T09:37:39.559Z,89394.25
2023-05-12T09:40:08.345Z,89400.81
2023-05-12T09:42:36.199Z,89398.16
2023-05-12T09:45:07.646Z,89389.03
2023-05-12T09:47:36.425Z,89383.97
2023-05-12T09:50:08.035Z,89384.34
2023-05-12T09:52:40.078Z,89385.19
2023-05-12T09:55:07.414Z,89389.25
2023-05-12T09:57:38.795Z,89379.06
2023-05-12T10:00:29.776Z,89375.50
2023-05-12T10:02:59.601Z,89377.22
2023-05-12T10:05:27.531Z,89374.13
2023-05-12T10:08:00.018Z,89380.03
2023-05-12T10:10:28.805Z,89373.81
2023-05-12T10:12:55.987Z,89381.00
2023-05-12T10:15:24.763Z,89370.84
2023-05-12T10:17:54.120Z,89381.66
2023-05-12T10:20:21.627Z,89362.34
2023-05-12T10:22:50.114Z,89366.69
2023-05-12T10:25:17.876Z,89362.16
2023-05-12T10:27:45.531Z,89362.47
2023-05-12T10:30:13.099Z,89362.22
2023-05-12T10:32:41.159Z,89368.53
2023-05-12T10:35:10.046Z,89366.41
2023-05-12T10:37:37.196Z,89358.72
2023-05-12T10:40:04.456Z,89362.47
2023-05-12T10:42:43.987Z,89361.63
2023-05-12T10:45:18.732Z,89365.19
2023-05-12T10:47:47.412Z,89367.78
2023-05-12T10:50:14.777Z,89375.53
2023-05-12T10:52:56.541Z,89359.38
2023-05-12T10:55:35.423Z,89368.78
2023-05-12T10:58:07.431Z,89363.97
2023-05-12T11:00:45.693Z,89354.34
2023-05-12T11:03:16.562Z,89351.66
2023-05-12T11:05:45.899Z,89362.84
2023-05-12T11:08:14.196Z,89348.50
2023-05-12T11:10:42.304Z,89357.59
2023-05-12T11:13:10.054Z,89361.34
2023-05-12T11:15:37.673Z,89339.19
2023-05-12T11:18:04.911Z,89354.34
2023-05-12T11:20:31.808Z,89347.66
2023-05-12T11:22:58.706Z,89343.50
2023-05-12T11:25:27.963Z,89348.28
2023-05-12T11:27:55.283Z,89352.94
2023-05-12T11:30:22.358Z,89342.69
2023-05-12T11:32:59.754Z,89354.47
2023-05-12T11:35:31.254Z,89345.81
2023-05-12T11:37:58.250Z,89334.59
2023-05-12T11:40:28.357Z,89342.63
2023-05-12T11:42:55.170Z,89332.31
2023-05-12T11:45:23.122Z,89341.50
2023-05-12T11:47:50.254Z,89333.34
2023-05-12T11:50:21.864Z,89335.50
2023-05-12T11:52:49.107Z,89331.97
2023-05-12T11:55:21.783Z,89337.56
2023-05-12T11:57:57.010Z,89328.06
2023-05-12T12:00:29.184Z,89326.47
2023-05-12T12:03:12.964Z,89328.63
2023-05-12T12:05:42.499Z,89331.53
2023-05-12T12:08:14.933Z,89335.81
2023-05-12T12:10:45.630Z,89332.31
2023-05-12T12:13:22.935Z,89334.22
2023-05-12T12:15:50.859Z,89328.06
2023-05-12T12:18:17.896Z,89329.19
2023-05-12T12:20:46.454Z,89331.97
2023-05-12T12:23:13.458Z,89331.16
2023-05-12T12:25:40.246Z,89328.53
2023-05-12T12:28:07.031Z,89339.59
2023-05-12T12:30:34.457Z,89347.50
2023-05-12T12:33:01.298Z,89349.34
2023-05-12T12:35:28.153Z,89348.50
2023-05-12T12:37:55.045Z,89346.88
2023-05-12T12:40:21.902Z,89336.75
2023-05-12T12:42:48.766Z,89343.75
2023-05-12T12:45:16.216Z,89339.63
2023-05-12T12:47:44.242Z,89332.72
2023-05-12T12:50:11.615Z,89335.59
2023-05-12T12:52:38.701Z,89332.19
2023-05-12T12:55:06.816Z,89329.44
2023-05-12T12:57:33.790Z,89329.28
2023-05-12T13:00:00.755Z,89329.63
2023-05-12T13:02:28.078Z,89333.31
2023-05-12T13:04:54.912Z,89330.97
2023-05-12T13:07:21.740Z,89333.34
2023-05-12T13:09:48.582Z,89328.88
2023-05-12T13:12:16.953Z,89327.84
2023-05-12T13:14:43.882Z,89332.81
2023-05-12T13:17:10.788Z,89336.94
2023-05-12T13:19:38.314Z,89336.09
2023-05-12T13:22:06.223Z,89330.97
2023-05-12T13:24:33.037Z,89333.22
2023-05-12T13:27:00.168Z,89334.47
2023-05-12T13:29:27.052Z,89332.19
2023-05-12T13:31:54.329Z,89327.22
2023-05-12T13:34:21.183Z,89334.25
2023-05-12T13:36:48.052Z,89321.91
2023-05-12T13:39:14.885Z,89316.75
2023-05-12T13:41:41.773Z,89324.94
2023-05-12T13:44:08.667Z,89324.34
2023-05-12T13:46:35.617Z,89321.31
2023-05-12T13:49:02.516Z,89320.06
2023-05-12T13:51:29.479Z,89318.22
2023-05-12T13:53:56.393Z,89315.22
2023-05-12T13:56:23.290Z,89305.06
2023-05-12T13:58:50.320Z,89303.00
2023-05-12T14:01:17.234Z,89307.25
2023-05-12T14:03:44.096Z,89309.59
2023-05-12T14:06:11.023Z,89312.19
2023-05-12T14:08:37.833Z,89313.38
2023-05-12T14:11:05.211Z,89301.97
2023-05-12T14:13:32.052Z,89308.38
2023-05-12T14:15:58.891Z,89311.91
2023-05-12T14:18:25.872Z,89314.09
2023-05-12T14:20:53.056Z,89317.25
2023-05-12T14:23:19.962Z,89322.66
2023-05-12T14:25:46.872Z,89315.81
2023-05-12T14:28:13.878Z,89313.78
2023-05-12T14:30:40.906Z,89321.19
2023-05-12T14:33:08.006Z,89324.56
2023-05-12T14:35:35.184Z,89315.13
2023-05-12T14:38:02.117Z,89308.72
2023-05-12T14:40:28.933Z,89324.97
2023-05-12T14:42:55.869Z,89312.81
2023-05-12T14:45:23.076Z,89313.69
2023-05-12T14:47:50.255Z,89320.97
2023-05-12T14:50:17.537Z,89337.66
2023-05-12T14:52:44.626Z,89317.63
2023-05-12T14:55:11.978Z,89332.97
2023-05-12T14:57:39.758Z,89335.56
2023-05-12T15:00:08.582Z,89348.31
2023-05-12T15:02:35.493Z,89355.59
2023-05-12T15:05:02.563Z,89363.84
2023-05-12T15:07:29.613Z,89366.03
2023-05-12T15:09:56.571Z,89375.19
2023-05-12T15:12:23.616Z,89372.75
2023-05-12T15:14:50.854Z,89379.22
2023-05-12T15:17:17.842Z,89381.50
2023-05-12T15:19:45.326Z,89381.75
2023-05-12T15:22:12.096Z,89389.41
2023-05-12T15:24:38.952Z,89361.91
2023-05-12T15:27:05.952Z,89369.25
2023-05-12T15:29:32.785Z,89356.13
2023-05-12T15:31:59.568Z,89365.41
2023-05-12T15:34:26.556Z,89373.69
2023-05-12T15:36:59.573Z,89370.53
2023-05-12T15:39:29.369Z,89376.44
2023-05-12T15:41:56.306Z,89384.66
2023-05-12T15:44:23.112Z,89395.41
2023-05-12T15:46:50.088Z,89401.25
2023-05-12T15:49:17.011Z,89410.72
2023-05-12T15:51:44.077Z,89416.38
2023-05-12T15:54:11.035Z,89424.63
2023-05-12T15:56:37.959Z,89427.13
2023-05-12T15:59:05.100Z,89429.84
2023-05-12T16:01:32.253Z,89425.03
2023-05-12T16:03:59.324Z,89438.66
2023-05-12T16:06:28.658Z,89424.31
2023-05-12T16:08:55.741Z,89416.28
2023-05-12T16:11:22.666Z,89418.50
2023-05-12T16:13:52.160Z,89426.06
2023-05-12T16:16:19.715Z,89421.69
2023-05-12T16:18:46.704Z,89416.88
2023-05-12T16:21:13.651Z,89422.75
2023-05-12T16:23:40.546Z,89429.28
2023-05-12T16:26:07.413Z,89424.91
2023-05-12T16:28:34.342Z,89434.63
2023-05-12T16:31:02.370Z,89438.53
2023-05-12T16:33:29.482Z,89434.88
2023-05-12T16:35:56.523Z,89438.28
2023-05-12T16:38:23.631Z,89438.06
2023-05-12T16:40:50.580Z,89449.47
2023-05-12T16:43:17.418Z,89454.78
2023-05-12T16:45:44.388Z,89457.72
2023-05-12T16:48:11.254Z,89455.78
2023-05-12T16:50:38.097Z,89468.91
2023-05-12T16:53:05.121Z,89467.44
2023-05-12T16:55:31.944Z,89471.84
2023-05-12T16:57:58.867Z,89476.44
2023-05-12T17:00:25.800Z,89478.59
2023-05-12T17:02:52.789Z,89469.41
2023-05-12T17:05:20.076Z,89470.81
2023-05-12T17:07:47.190Z,89478.13
2023-05-12T17:10:14.046Z,89481.78
2023-05-12T17:12:40.904Z,89485.19
2023-05-12T17:15:10.070Z,89487.59
2023-05-12T17:17:39.571Z,89478.34
2023-05-12T17:20:07.017Z,89483.94
2023-05-12T17:22:33.907Z,89481.75
2023-05-12T17:25:00.891Z,89489.78
2023-05-12T17:27:27.711Z,89498.72
2023-05-12T17:29:54.663Z,89502.63
2023-05-12T17:32:21.479Z,89519.16
2023-05-12T17:34:50.005Z,89512.34
2023-05-12T17:37:17.691Z,89508.47
2023-05-12T17:39:44.746Z,89512.59
2023-05-12T17:42:11.712Z,89518.47
2023-05-12T17:44:38.687Z,89519.44
2023-05-12T17:47:05.870Z,89523.59
2023-05-12T17:49:32.761Z,89525.81
2023-05-12T17:51:59.690Z,89521.19
2023-05-12T17:54:26.466Z,89525.09
2023-05-12T17:56:53.387Z,89526.03
2023-05-12T17:59:20.351Z,89542.34
2023-05-12T18:01:47.255Z,89535.03
2023-05-12T18:04:14.181Z,89547.94
2023-05-12T18:06:41.193Z,89542.59
2023-05-12T18:09:08.041Z,89542.81
2023-05-12T18:11:34.851Z,89544.03
2023-05-12T18:14:02.355Z,89542.31
2023-05-12T18:16:29.777Z,89545.00
2023-05-12T18:18:57.078Z,89544.03
2023-05-12T18:21:24.395Z,89541.34
2023-05-12T18:23:51.318Z,89541.84
2023-05-12T18:26:18.229Z,89545.00
2023-05-12T18:28:45.121Z,89544.78
2023-05-12T18:33:53.143Z,89538.91
2023-05-12T18:36:19.994Z,89550.59
2023-05-12T18:38:46.826Z,89544.97
2023-05-12T18:41:13.827Z,89550.56
2023-05-12T18:43:40.744Z,89538.91
2023-05-12T18:46:07.730Z,89539.13
2023-05-12T18:48:34.970Z,89537.44
2023-05-12T18:51:02.013Z,89533.81
2023-05-12T18:53:28.857Z,89536.47
2023-05-12T18:55:55.839Z,89533.53
2023-05-12T18:58:22.747Z,89532.56
2023-05-12T19:00:49.738Z,89533.28
2023-05-12T19:03:16.848Z,89528.16
2023-05-12T19:05:43.749Z,89535.91
2023-05-12T19:08:11.326Z,89527.16
2023-05-12T19:10:40.020Z,89528.63
2023-05-12T19:13:07.185Z,89528.13
2023-05-12T19:15:34.089Z,89523.75
2023-05-12T19:18:01.118Z,89527.41
2023-05-12T19:20:28.130Z,89526.66
2023-05-12T19:22:55.155Z,89529.34
2023-05-12T19:25:22.490Z,89519.84
2023-05-12T19:27:49.636Z,89525.94
2023-05-12T19:30:16.837Z,89525.69
2023-05-12T19:32:43.858Z,89529.34
2023-05-12T19:35:10.713Z,89528.84
2023-05-12T19:37:37.742Z,89525.22
2023-05-12T19:40:05.554Z,89520.84
2023-05-12T19:42:32.432Z,89517.50
2023-05-12T19:44:59.647Z,89516.75
2023-05-12T19:47:27.118Z,89517.97
2023-05-12T19:49:54.020Z,89521.13
2023-05-12T19:52:22.201Z,89512.09
2023-05-12T19:54:49.106Z,89511.16
2023-05-12T19:57:15.966Z,89516.75
2023-05-12T19:59:42.864Z,89515.03
2023-05-12T20:02:14.005Z,89518.72
2023-05-12T20:04:41.086Z,89508.22
2023-05-12T20:07:07.962Z,89512.19
2023-05-12T20:09:34.986Z,89514.56
2023-05-12T20:12:01.840Z,89516.19
2023-05-12T20:14:28.711Z,89518.03
2023-05-12T20:16:56.270Z,89510.53
2023-05-12T20:19:23.219Z,89522.69
2023-05-12T20:21:50.076Z,89512.56
2023-05-12T20:24:17.194Z,89511.59
2023-05-12T20:26:44.121Z,89514.53
2023-05-12T20:29:11.074Z,89520.13
2023-05-12T20:31:38.042Z,89525.50
2023-05-12T20:34:05.001Z,89527.00
2023-05-12T20:36:31.844Z,89524.09
2023-05-12T20:38:58.751Z,89519.72
2023-05-12T20:41:25.578Z,89526.75
2023-05-12T20:43:52.333Z,89525.53
2023-05-12T20:46:19.366Z,89525.03
2023-05-12T20:48:46.315Z,89522.16
2023-05-12T20:51:13.701Z,89520.66
2023-05-12T20:53:40.881Z,89524.78
2023-05-12T20:56:08.592Z,89519.19
2023-05-12T20:58:35.750Z,89512.78
2023-05-12T21:01:02.956Z,89522.22
2023-05-12T21:03:30.522Z,89519.06
2023-05-12T21:06:00.488Z,89531.88
2023-05-12T21:08:27.562Z,89529.16
2023-05-12T21:10:54.492Z,89525.00
2023-05-12T21:13:21.310Z,89525.84
2023-05-12T21:15:48.325Z,89523.94
2023-05-12T21:18:15.214Z,89523.88
2023-05-12T21:20:42.285Z,89522.66
2023-05-12T21:23:11.265Z,89521.22
2023-05-12T21:25:38.466Z,89517.22
2023-05-12T21:28:06.019Z,89527.81
2023-05-12T21:30:33.029Z,89522.66
2023-05-12T21:33:04.327Z,89525.34
2023-05-12T21:35:31.191Z,89526.06
2023-05-12T21:37:58.074Z,89524.13
2023-05-12T21:40:24.902Z,89524.63
2023-05-12T21:42:51.773Z,89520.94
2023-05-12T21:45:18.648Z,89519.78
2023-05-12T21:47:45.542Z,89518.50
2023-05-12T21:50:12.460Z,89512.69
2023-05-12T21:52:39.579Z,89509.25
2023-05-12T21:55:06.849Z,89518.25
2023-05-12T21:57:33.807Z,89515.41
2023-05-12T22:00:00.737Z,89512.72
2023-05-12T22:02:27.682Z,89523.09
2023-05-12T22:04:54.573Z,89511.34
2023-05-12T22:07:24.484Z,89522.97
2023-05-12T22:09:51.300Z,89518.63
2023-05-12T22:12:18.493Z,89522.66
2023-05-12T22:14:45.598Z,89522.25
2023-05-12T22:17:12.453Z,89513.75
2023-05-12T22:19:39.440Z,89507.72
2023-05-12T22:22:06.384Z,89518.88
2023-05-12T22:24:33.337Z,89514.09
2023-05-12T22:27:00.211Z,89514.31
2023-05-12T22:29:27.181Z,89515.09
2023-05-12T22:31:54.101Z,89518.97
2023-05-12T22:34:20.932Z,89516.31
2023-05-12T22:36:47.877Z,89508.31
2023-05-12T22:39:14.820Z,89513.41
2023-05-12T22:41:41.704Z,89514.63
2023-05-12T22:44:08.712Z,89517.59
2023-05-12T22:46:35.549Z,89514.94
2023-05-12T22:49:02.360Z,89515.03
2023-05-12T22:51:29.276Z,89515.13
2023-05-12T22:53:56.068Z,89513.22
2023-05-12T22:56:22.906Z,89509.31
2023-05-12T22:58:49.817Z,89508.63
2023-05-12T23:01:16.719Z,89515.19
2023-05-12T23:03:43.568Z,89508.19
2023-05-12T23:06:10.497Z,89507.25
2023-05-12T23:08:37.356Z,89502.69
2023-05-12T23:11:04.174Z,89501.22
2023-05-12T23:13:31.043Z,89497.63
2023-05-12T23:15:57.844Z,89495.47
2023-05-12T23:18:24.696Z,89498.38
2023-05-12T23:20:51.779Z,89500.84
2023-05-12T23:23:18.611Z,89488.25
2023-05-12T23:25:47.086Z,89489.19
2023-05-12T23:28:13.915Z,89492.34
2023-05-12T23:30:40.703Z,89496.69
2023-05-12T23:33:07.663Z,89501.03
2023-05-12T23:35:34.699Z,89501.50
2023-05-12T23:38:01.570Z,89499.34
2023-05-12T23:40:28.393Z,89503.44
2023-05-12T23:42:55.349Z,89501.25
2023-05-12T23:45:22.196Z,89500.28
2023-05-12T23:47:48.960Z,89502.91
2023-05-12T23:50:16.291Z,89503.13
2023-05-12T23:52:43.083Z,89503.63
2023-05-12T23:55:10.023Z,89500.22
2023-05-12T23:57:36.892Z,89497.00
